KALN/ALN METAR and TAF weather

Enter ICAO airport designator
Station Type Date Time Source
KALN METAR 2020/09/19 17:50 UTC NOAA

KALN 191750Z 07007KT 10SM SKC 20/06 A3034


Station Type Date Time Source
KALN Decoded METAR 2020/09/19 17:50 UTC NOAA

Alton/St. Louis, St. Louis Regional Airport, IL, United States (KALN) 38-54N 090-03W
Sep 19, 2020 - 01:50 PM EDT / 2020.09.19 1750 UTC
Wind: from the ENE (070 degrees) at 8 MPH (7 KT):0
Visibility: 10 mile(s):0
Sky conditions: clear
Temperature: 68 F (20 C)
Dew Point: 42 F (6 C)
Relative Humidity: 39%
Pressure (altimeter): 30.34 in. Hg (1027 hPa)
ob: KALN 191750Z 07007KT 10SM SKC 20/06 A3034
cycle: 18

Station Type Date Time Source
KALN TAF UTC NOAA

Error!

Example: see airport list